createdAt,value
2023-05-11T00:00:39.000Z,13.58
2023-05-11T00:03:06.277Z,13.53
2023-05-11T00:05:32.855Z,13.43
2023-05-11T00:07:59.348Z,13.46
2023-05-11T00:10:26.050Z,13.51
2023-05-11T00:12:52.515Z,13.47
2023-05-11T00:15:19.113Z,13.35
2023-05-11T00:17:45.668Z,13.32
2023-05-11T00:20:12.177Z,13.34
2023-05-11T00:22:39.207Z,13.30
2023-05-11T00:25:06.456Z,13.20
2023-05-11T00:27:32.967Z,13.17
2023-05-11T00:29:59.422Z,13.16
2023-05-11T00:32:25.870Z,13.16
2023-05-11T00:34:52.416Z,13.10
2023-05-11T00:37:18.858Z,13.16
2023-05-11T00:39:45.405Z,13.07
2023-05-11T00:42:11.866Z,12.99
2023-05-11T00:44:38.340Z,12.94
2023-05-11T00:47:04.947Z,12.85
2023-05-11T00:49:31.561Z,12.83
2023-05-11T00:51:58.287Z,12.79
2023-05-11T00:54:25.272Z,12.86
2023-05-11T00:56:51.871Z,12.84
2023-05-11T00:59:18.756Z,12.76
2023-05-11T01:01:45.739Z,12.67
2023-05-11T01:04:12.841Z,12.59
2023-05-11T01:07:27.552Z,12.51
2023-05-11T01:10:05.902Z,12.60
2023-05-11T01:12:43.458Z,12.57
2023-05-11T01:15:21.471Z,12.46
2023-05-11T01:18:22.080Z,12.50
2023-05-11T01:20:53.233Z,12.46
2023-05-11T01:23:39.906Z,12.35
2023-05-11T01:26:06.302Z,12.27
2023-05-11T01:28:44.727Z,12.27
2023-05-11T01:31:12.604Z,12.29
2023-05-11T01:33:49.812Z,12.30
2023-05-11T01:36:19.484Z,12.25
2023-05-11T01:38:49.071Z,12.27
2023-05-11T01:41:19.067Z,12.32
2023-05-11T01:43:53.511Z,12.32
2023-05-11T01:46:24.379Z,12.14
2023-05-11T01:48:54.557Z,12.01
2023-05-11T01:51:21.177Z,11.85
2023-05-11T01:53:48.595Z,11.60
2023-05-11T01:56:17.764Z,11.58
2023-05-11T01:58:45.423Z,11.60
2023-05-11T02:01:14.283Z,11.59
2023-05-11T02:03:43.058Z,11.66
2023-05-11T02:06:11.553Z,11.65
2023-05-11T02:08:39.387Z,11.46
2023-05-11T02:11:07.272Z,11.38
2023-05-11T02:13:36.648Z,11.50
2023-05-11T02:16:35.220Z,11.52
2023-05-11T02:19:03.194Z,11.53
2023-05-11T02:21:32.400Z,11.59
2023-05-11T02:24:01.796Z,11.37
2023-05-11T02:26:28.335Z,11.59
2023-05-11T02:28:55.541Z,11.47
2023-05-11T02:31:29.723Z,11.37
2023-05-11T02:34:06.300Z,11.39
2023-05-11T02:36:35.701Z,11.30
2023-05-11T02:39:06.986Z,11.25
2023-05-11T02:41:37.793Z,11.38
2023-05-11T02:44:07.431Z,11.25
2023-05-11T02:46:37.029Z,11.43
2023-05-11T02:49:08.053Z,11.41
2023-05-11T02:51:39.329Z,11.36
2023-05-11T02:54:10.925Z,11.38
2023-05-11T03:00:06.825Z,11.37
2023-05-11T03:02:33.480Z,11.29
2023-05-11T03:05:00.001Z,11.18
2023-05-11T03:07:26.661Z,11.44
2023-05-11T03:09:53.398Z,11.22
2023-05-11T03:12:21.235Z,11.32
2023-05-11T03:14:48.341Z,11.21
2023-05-11T03:17:15.835Z,11.26
2023-05-11T03:19:43.343Z,11.04
2023-05-11T03:22:10.653Z,11.22
2023-05-11T03:24:38.500Z,11.05
2023-05-11T03:27:07.827Z,11.07
2023-05-11T03:29:38.452Z,10.92
2023-05-11T03:32:05.501Z,10.86
2023-05-11T03:34:32.465Z,10.87
2023-05-11T03:37:00.733Z,10.93
2023-05-11T03:39:31.236Z,10.89
2023-05-11T03:41:59.310Z,11.02
2023-05-11T03:44:26.675Z,11.14
2023-05-11T03:46:55.261Z,11.20
2023-05-11T03:49:22.400Z,11.14
2023-05-11T03:51:49.373Z,11.02
2023-05-11T03:54:16.112Z,11.01
2023-05-11T03:56:42.640Z,10.66
2023-05-11T03:59:14.464Z,10.82
2023-05-11T04:01:42.613Z,10.83
2023-05-11T04:04:09.211Z,10.90
2023-05-11T04:06:35.807Z,10.77
2023-05-11T04:09:02.229Z,10.65
2023-05-11T04:11:30.421Z,10.81
2023-05-11T04:13:56.990Z,10.79
2023-05-11T04:16:23.482Z,10.85
2023-05-11T04:18:50.110Z,10.95
2023-05-11T04:21:16.654Z,10.99
2023-05-11T04:23:43.165Z,10.95
2023-05-11T04:26:10.105Z,10.82
2023-05-11T04:28:36.571Z,10.95
2023-05-11T04:31:03.175Z,11.03
2023-05-11T04:33:29.813Z,11.01
2023-05-11T04:35:56.391Z,11.14
2023-05-11T04:38:22.959Z,11.16
2023-05-11T04:40:50.668Z,11.09
2023-05-11T04:43:18.523Z,11.20
2023-05-11T04:45:51.693Z,11.31
2023-05-11T04:48:20.519Z,11.27
2023-05-11T04:50:47.761Z,11.20
2023-05-11T04:53:14.400Z,11.10
2023-05-11T04:55:41.030Z,11.20
2023-05-11T04:58:07.530Z,11.24
2023-05-11T05:00:34.119Z,11.33
2023-05-11T05:03:00.606Z,11.31
2023-05-11T05:05:27.223Z,11.27
2023-05-11T05:07:53.686Z,11.39
2023-05-11T05:10:20.586Z,11.42
2023-05-11T05:12:47.404Z,11.49
2023-05-11T05:15:14.077Z,11.59
2023-05-11T05:17:40.701Z,11.52
2023-05-11T05:20:07.938Z,11.63
2023-05-11T05:22:34.922Z,11.58
2023-05-11T05:25:01.490Z,11.60
2023-05-11T05:27:28.106Z,11.62
2023-05-11T05:29:54.631Z,11.68
2023-05-11T05:32:21.107Z,11.65
2023-05-11T05:34:47.638Z,11.62
2023-05-11T05:37:14.200Z,11.77
2023-05-11T05:39:40.927Z,11.84
2023-05-11T05:42:07.559Z,11.84
2023-05-11T05:44:34.066Z,11.80
2023-05-11T05:47:00.583Z,11.81
2023-05-11T05:49:27.093Z,11.91
2023-05-11T05:51:53.617Z,11.95
2023-05-11T05:54:20.211Z,12.08
2023-05-11T05:56:47.688Z,12.04
2023-05-11T05:59:14.513Z,12.24
2023-05-11T06:01:45.573Z,12.18
2023-05-11T06:04:16.044Z,12.15
2023-05-11T06:06:42.702Z,12.27
2023-05-11T06:09:11.332Z,12.21
2023-05-11T06:11:38.276Z,12.45
2023-05-11T06:14:05.808Z,12.44
2023-05-11T06:16:32.574Z,12.47
2023-05-11T06:18:59.292Z,12.52
2023-05-11T06:21:25.769Z,12.54
2023-05-11T06:23:52.517Z,12.64
2023-05-11T06:26:19.206Z,12.71
2023-05-11T06:28:45.721Z,12.86
2023-05-11T06:31:12.721Z,12.92
2023-05-11T06:33:39.256Z,13.13
2023-05-11T06:36:06.740Z,12.96
2023-05-11T06:38:33.208Z,12.90
2023-05-11T06:40:59.796Z,13.07
2023-05-11T06:43:26.739Z,13.39
2023-05-11T06:45:53.268Z,13.62
2023-05-11T06:48:20.465Z,13.44
2023-05-11T06:50:46.996Z,13.45
2023-05-11T06:53:13.954Z,13.77
2023-05-11T06:55:40.700Z,14.12
2023-05-11T06:58:07.246Z,14.48
2023-05-11T07:00:34.004Z,14.63
2023-05-11T07:03:00.653Z,14.62
2023-05-11T07:05:27.935Z,14.95
2023-05-11T07:07:54.440Z,15.16
2023-05-11T07:10:21.206Z,15.07
2023-05-11T07:12:47.911Z,15.49
2023-05-11T07:15:14.393Z,15.62
2023-05-11T07:17:41.014Z,15.41
2023-05-11T07:20:08.345Z,15.97
2023-05-11T07:22:34.816Z,16.27
2023-05-11T07:25:01.597Z,16.93
2023-05-11T07:27:28.188Z,16.93
2023-05-11T07:29:54.697Z,16.73
2023-05-11T07:32:21.207Z,16.16
2023-05-11T07:34:48.544Z,16.74
2023-05-11T07:37:15.271Z,17.64
2023-05-11T07:39:41.814Z,17.11
2023-05-11T07:42:08.360Z,17.16
2023-05-11T07:44:35.018Z,18.34
2023-05-11T07:47:01.839Z,18.44
2023-05-11T07:49:39.976Z,18.81
2023-05-11T07:52:10.384Z,18.43
2023-05-11T07:54:36.965Z,18.16
2023-05-11T07:57:04.098Z,17.91
2023-05-11T07:59:31.193Z,18.92
2023-05-11T08:01:57.845Z,19.09
2023-05-11T08:04:24.505Z,18.46
2023-05-11T08:06:51.202Z,18.48
2023-05-11T08:09:17.934Z,18.89
2023-05-11T08:11:44.480Z,19.23
2023-05-11T08:14:10.997Z,19.20
2023-05-11T08:16:37.990Z,19.53
2023-05-11T08:19:04.725Z,19.41
2023-05-11T08:21:32.858Z,20.05
2023-05-11T08:23:59.405Z,20.86
2023-05-11T08:26:25.876Z,20.38
2023-05-11T08:28:52.831Z,20.80
2023-05-11T08:31:19.410Z,20.40
2023-05-11T08:33:46.063Z,20.74
2023-05-11T08:36:15.717Z,21.15
2023-05-11T08:38:42.292Z,20.71
2023-05-11T08:41:11.894Z,20.95
2023-05-11T08:43:39.832Z,20.68
2023-05-11T08:46:08.830Z,20.91
2023-05-11T08:48:35.924Z,20.89
2023-05-11T08:51:05.596Z,20.77
2023-05-11T08:53:32.701Z,21.22
2023-05-11T08:56:01.100Z,20.99
2023-05-11T08:58:29.031Z,21.23
2023-05-11T09:00:57.351Z,21.82
2023-05-11T09:03:24.059Z,22.62
2023-05-11T09:05:50.925Z,22.51
2023-05-11T09:08:19.230Z,22.38
2023-05-11T09:10:46.255Z,22.15
2023-05-11T09:13:13.196Z,20.95
2023-05-11T09:15:39.784Z,20.39
2023-05-11T09:18:06.933Z,21.29
2023-05-11T09:20:34.786Z,21.20
2023-05-11T09:23:01.915Z,22.15
2023-05-11T09:25:34.851Z,23.42
2023-05-11T09:28:01.561Z,21.99
2023-05-11T09:30:28.443Z,22.58
2023-05-11T09:33:02.697Z,22.83
2023-05-11T09:35:34.463Z,22.75
2023-05-11T09:38:04.809Z,22.59
2023-05-11T09:40:37.317Z,22.92
2023-05-11T09:43:16.816Z,22.84
2023-05-11T09:45:45.469Z,21.72
2023-05-11T09:48:21.402Z,23.35
2023-05-11T09:50:50.145Z,24.21
2023-05-11T09:53:17.377Z,24.06
2023-05-11T09:55:55.648Z,24.24
2023-05-11T09:58:22.264Z,24.29
2023-05-11T10:00:53.742Z,23.77
2023-05-11T10:03:20.576Z,24.91
2023-05-11T10:06:01.279Z,24.71
2023-05-11T10:08:32.369Z,24.52
2023-05-11T10:10:59.208Z,24.50
2023-05-11T10:13:27.313Z,24.34
2023-05-11T10:15:57.620Z,24.94
2023-05-11T10:18:25.720Z,23.70
2023-05-11T10:20:53.577Z,23.94
2023-05-11T10:23:21.103Z,23.60
2023-05-11T10:25:48.416Z,21.86
2023-05-11T10:28:15.474Z,21.04
2023-05-11T10:30:43.089Z,21.46
2023-05-11T10:33:10.628Z,21.97
2023-05-11T10:35:38.509Z,23.30
2023-05-11T10:38:08.643Z,23.30
2023-05-11T10:40:41.994Z,21.67
2023-05-11T10:43:29.879Z,21.67
2023-05-11T10:46:17.867Z,21.91
2023-05-11T10:49:10.158Z,21.51
2023-05-11T10:52:18.080Z,21.61
2023-05-11T10:55:06.775Z,22.63
2023-05-11T10:57:52.073Z,22.63
2023-05-11T11:00:31.289Z,22.32
2023-05-11T11:02:59.024Z,22.06
2023-05-11T11:05:38.081Z,21.79
2023-05-11T11:08:07.316Z,21.57
2023-05-11T11:10:35.750Z,21.55
2023-05-11T11:13:04.640Z,21.41
2023-05-11T11:16:06.441Z,20.95
2023-05-11T11:18:35.699Z,21.05
2023-05-11T11:21:03.024Z,21.03
2023-05-11T11:23:45.467Z,21.34
2023-05-11T11:26:16.635Z,21.79
2023-05-11T11:29:08.339Z,20.94
2023-05-11T11:31:35.210Z,20.94
2023-05-11T11:34:29.312Z,21.25
2023-05-11T11:36:55.812Z,21.90
2023-05-11T11:39:23.100Z,21.79
2023-05-11T11:42:07.062Z,22.39
2023-05-11T11:44:39.573Z,21.41
2023-05-11T11:47:12.127Z,21.20
2023-05-11T11:49:40.352Z,20.65
2023-05-11T11:52:12.513Z,20.56
2023-05-11T11:54:45.453Z,19.81
2023-05-11T11:57:30.232Z,20.22
2023-05-11T11:59:57.115Z,20.41
2023-05-11T12:02:24.537Z,19.70
2023-05-11T12:05:00.146Z,19.50
2023-05-11T12:07:31.336Z,19.41
2023-05-11T12:09:58.175Z,20.00
2023-05-11T12:12:25.363Z,20.47
2023-05-11T12:14:51.851Z,20.48
2023-05-11T12:17:28.063Z,20.51
2023-05-11T12:19:55.912Z,20.50
2023-05-11T12:22:24.351Z,19.99
2023-05-11T12:24:51.232Z,19.93
2023-05-11T12:27:21.102Z,20.08
2023-05-11T12:29:51.416Z,19.96
2023-05-11T12:32:31.909Z,20.37
2023-05-11T12:35:02.775Z,20.66
2023-05-11T12:37:31.135Z,20.64
2023-05-11T12:39:58.335Z,20.59
2023-05-11T12:42:25.375Z,20.75
2023-05-11T12:44:52.305Z,20.39
2023-05-11T12:47:18.962Z,20.42
2023-05-11T12:49:45.682Z,20.54
2023-05-11T12:52:16.393Z,20.63
2023-05-11T12:54:51.691Z,20.76
2023-05-11T12:57:26.587Z,21.06
2023-05-11T13:00:25.609Z,21.45
2023-05-11T13:02:54.887Z,21.28
2023-05-11T13:05:27.800Z,21.54
2023-05-11T13:08:02.211Z,21.10
2023-05-11T13:10:29.544Z,21.02
2023-05-11T13:12:56.594Z,21.02
2023-05-11T13:15:24.530Z,20.60
2023-05-11T13:18:16.504Z,20.71
2023-05-11T13:20:44.865Z,20.61
2023-05-11T13:23:13.891Z,20.09
2023-05-11T13:25:46.513Z,19.65
2023-05-11T13:28:15.425Z,19.47
2023-05-11T13:30:42.483Z,19.76
2023-05-11T13:33:09.434Z,19.52
2023-05-11T13:35:39.981Z,19.53
2023-05-11T13:38:06.898Z,19.85
2023-05-11T13:40:34.059Z,19.97
2023-05-11T13:43:00.803Z,20.22
2023-05-11T13:45:28.403Z,20.32
2023-05-11T13:47:57.831Z,20.18
2023-05-11T13:50:26.064Z,20.42
2023-05-11T13:52:53.761Z,19.83
2023-05-11T13:55:21.187Z,19.94
2023-05-11T13:57:48.297Z,20.02
2023-05-11T14:00:15.403Z,20.18
2023-05-11T14:02:42.147Z,20.32
2023-05-11T14:05:09.183Z,20.21
2023-05-11T14:07:46.384Z,20.10
2023-05-11T14:10:15.329Z,20.14
2023-05-11T14:12:41.938Z,20.04
2023-05-11T14:15:09.069Z,20.22
2023-05-11T14:17:35.876Z,20.42
2023-05-11T14:20:03.291Z,20.52
2023-05-11T14:22:29.857Z,20.21
2023-05-11T14:24:56.390Z,19.89
2023-05-11T14:27:23.495Z,19.24
2023-05-11T14:29:52.059Z,19.27
2023-05-11T14:32:22.046Z,19.31
2023-05-11T14:34:48.820Z,19.13
2023-05-11T14:37:15.577Z,18.98
2023-05-11T14:39:42.117Z,19.21
2023-05-11T14:42:09.268Z,19.58
2023-05-11T14:44:35.825Z,19.31
2023-05-11T14:47:02.518Z,19.75
2023-05-11T14:49:29.018Z,19.95
2023-05-11T14:51:56.588Z,19.41
2023-05-11T14:54:23.298Z,19.72
2023-05-11T14:56:53.877Z,19.18
2023-05-11T14:59:26.416Z,19.40
2023-05-11T15:01:53.272Z,19.70
2023-05-11T15:04:20.396Z,19.25
2023-05-11T15:06:47.016Z,19.78
2023-05-11T15:09:13.681Z,19.32
2023-05-11T15:11:40.163Z,19.64
2023-05-11T15:14:09.831Z,19.68
2023-05-11T15:16:37.110Z,19.73
2023-05-11T15:19:05.081Z,19.52
2023-05-11T15:21:32.568Z,19.37
2023-05-11T15:23:59.110Z,19.30
2023-05-11T15:26:25.963Z,19.30
2023-05-11T15:28:52.530Z,19.49
2023-05-11T15:31:19.071Z,19.46
2023-05-11T15:33:45.712Z,19.42
2023-05-11T15:36:14.181Z,19.37
2023-05-11T15:38:42.377Z,19.00
2023-05-11T15:41:09.387Z,19.52
2023-05-11T15:43:35.902Z,19.24
2023-05-11T15:46:03.888Z,19.45
2023-05-11T15:48:30.719Z,19.38
2023-05-11T15:50:59.724Z,19.45
2023-05-11T15:53:26.929Z,19.34
2023-05-11T15:55:55.406Z,19.40
2023-05-11T15:58:22.982Z,19.42
2023-05-11T16:00:49.585Z,19.15
2023-05-11T16:03:16.584Z,19.15
2023-05-11T16:05:44.557Z,19.01
2023-05-11T16:08:11.328Z,19.07
2023-05-11T16:10:37.897Z,19.01
2023-05-11T16:13:04.535Z,19.02
2023-05-11T16:15:32.105Z,18.98
2023-05-11T16:17:58.704Z,19.27
2023-05-11T16:20:25.421Z,19.30
2023-05-11T16:22:52.208Z,19.44
2023-05-11T16:25:18.997Z,19.38
2023-05-11T16:27:45.562Z,19.38
2023-05-11T16:30:23.278Z,19.32
2023-05-11T16:32:52.450Z,19.25
2023-05-11T16:35:19.128Z,19.25
2023-05-11T16:37:47.655Z,19.06
2023-05-11T16:40:14.362Z,19.16
2023-05-11T16:42:40.868Z,19.06
2023-05-11T16:45:07.746Z,19.08
2023-05-11T16:47:34.404Z,18.98
2023-05-11T16:50:00.883Z,19.05
2023-05-11T16:52:27.644Z,19.03
2023-05-11T16:54:54.895Z,18.89
2023-05-11T16:57:22.663Z,18.69
2023-05-11T16:59:49.170Z,18.66
2023-05-11T17:02:15.638Z,18.89
2023-05-11T17:04:42.197Z,18.72
2023-05-11T17:07:10.907Z,18.65
2023-05-11T17:09:37.473Z,18.75
2023-05-11T17:12:10.600Z,19.01
2023-05-11T17:14:37.314Z,18.84
2023-05-11T17:17:04.849Z,18.71
2023-05-11T17:19:31.457Z,18.48
2023-05-11T17:21:58.659Z,18.69
2023-05-11T17:24:25.565Z,18.66
2023-05-11T17:26:52.174Z,18.68
2023-05-11T17:29:18.741Z,18.71
2023-05-11T17:31:48.721Z,18.64
2023-05-11T17:34:15.948Z,18.55
2023-05-11T17:36:53.309Z,18.37
2023-05-11T17:39:19.915Z,18.43
2023-05-11T17:41:47.391Z,18.62
2023-05-11T17:44:14.120Z,18.38
2023-05-11T17:46:40.670Z,18.33
2023-05-11T17:49:08.003Z,18.25
2023-05-11T17:51:34.505Z,18.34
2023-05-11T17:54:01.414Z,18.36
2023-05-11T17:56:27.937Z,18.44
2023-05-11T17:58:54.670Z,18.57
2023-05-11T18:01:22.588Z,18.39
2023-05-11T18:03:49.568Z,18.27
2023-05-11T18:06:16.456Z,18.44
2023-05-11T18:08:42.980Z,18.13
2023-05-11T18:11:10.888Z,18.04
2023-05-11T18:13:37.435Z,18.11
2023-05-11T18:16:04.453Z,18.09
2023-05-11T18:18:31.930Z,18.15
2023-05-11T18:20:59.368Z,18.03
2023-05-11T18:23:25.815Z,18.16
2023-05-11T18:25:52.267Z,18.07
2023-05-11T18:28:18.778Z,17.91
2023-05-11T18:30:45.229Z,18.15
2023-05-11T18:33:11.761Z,17.97
2023-05-11T18:35:40.241Z,17.88
2023-05-11T18:38:07.110Z,18.00
2023-05-11T18:40:34.486Z,18.04
2023-05-11T18:43:01.572Z,17.93
2023-05-11T18:45:32.920Z,17.83
2023-05-11T18:47:59.432Z,17.93
2023-05-11T18:50:27.091Z,17.88
2023-05-11T18:52:53.700Z,17.83
2023-05-11T18:55:20.268Z,17.88
2023-05-11T18:57:46.892Z,17.99
2023-05-11T19:00:13.730Z,17.87
2023-05-11T19:02:40.308Z,17.69
2023-05-11T19:05:07.417Z,17.68
2023-05-11T19:07:33.936Z,17.60
2023-05-11T19:10:00.404Z,17.48
2023-05-11T19:12:27.288Z,17.52
2023-05-11T19:14:56.123Z,17.59
2023-05-11T19:17:23.534Z,17.56
2023-05-11T19:19:50.189Z,17.47
2023-05-11T19:22:17.309Z,17.39
2023-05-11T19:24:43.814Z,17.27
2023-05-11T19:27:10.408Z,17.28
2023-05-11T19:29:36.992Z,17.22
2023-05-11T19:32:03.693Z,17.23
2023-05-11T19:34:30.296Z,17.24
2023-05-11T19:36:56.889Z,17.23
2023-05-11T19:39:24.366Z,17.14
2023-05-11T19:41:50.962Z,17.35
2023-05-11T19:44:17.830Z,17.15
2023-05-11T19:46:46.881Z,17.12
2023-05-11T19:49:15.001Z,17.08
2023-05-11T19:51:42.343Z,17.00
2023-05-11T19:54:09.631Z,16.95
2023-05-11T19:56:36.156Z,16.84
2023-05-11T19:59:02.863Z,16.73
2023-05-11T20:01:29.413Z,16.73
2023-05-11T20:03:56.645Z,16.70
2023-05-11T20:06:23.328Z,16.59
2023-05-11T20:08:51.553Z,16.56
2023-05-11T20:11:18.249Z,16.69
2023-05-11T20:13:45.030Z,16.53
2023-05-11T20:16:11.576Z,16.64
2023-05-11T20:18:38.153Z,16.52
2023-05-11T20:21:04.651Z,16.53
2023-05-11T20:23:31.125Z,16.42
2023-05-11T20:25:57.694Z,16.51
2023-05-11T20:28:27.923Z,16.52
2023-05-11T20:30:56.142Z,16.44
2023-05-11T20:35:53.574Z,16.34
2023-05-11T20:38:20.543Z,16.40
2023-05-11T20:40:47.270Z,16.46
2023-05-11T20:43:14.963Z,16.34
2023-05-11T20:45:42.302Z,16.31
2023-05-11T20:48:09.165Z,16.29
2023-05-11T20:50:35.759Z,16.14
2023-05-11T20:53:02.476Z,16.05
2023-05-11T20:55:29.137Z,16.14
2023-05-11T20:57:55.699Z,16.10
2023-05-11T21:00:22.816Z,15.92
2023-05-11T21:02:49.795Z,15.93
2023-05-11T21:05:16.512Z,16.00
2023-05-11T21:07:43.033Z,16.08
2023-05-11T21:10:12.417Z,16.03
2023-05-11T21:12:38.968Z,15.98
2023-05-11T21:15:07.061Z,16.06
2023-05-11T21:17:33.741Z,15.94
2023-05-11T21:20:00.501Z,16.08
2023-05-11T21:22:27.160Z,15.95
2023-05-11T21:24:53.839Z,15.89
2023-05-11T21:27:20.383Z,15.95
2023-05-11T21:29:48.133Z,15.91
2023-05-11T21:32:14.941Z,15.76
2023-05-11T21:34:42.439Z,15.83
2023-05-11T21:37:09.084Z,15.72
2023-05-11T21:39:35.688Z,15.75
2023-05-11T21:42:03.502Z,15.65
2023-05-11T21:44:30.024Z,15.82
2023-05-11T21:46:56.642Z,15.68
2023-05-11T21:49:23.301Z,15.59
2023-05-11T21:51:50.227Z,15.54
2023-05-11T21:54:16.799Z,15.40
2023-05-11T21:56:43.605Z,15.24
2023-05-11T21:59:10.169Z,15.37
2023-05-11T22:01:36.718Z,15.31
2023-05-11T22:04:03.555Z,15.33
2023-05-11T22:06:30.853Z,15.20
2023-05-11T22:08:57.326Z,15.21
2023-05-11T22:11:24.258Z,15.15
2023-05-11T22:13:51.019Z,15.14
2023-05-11T22:16:17.664Z,15.14
2023-05-11T22:18:44.421Z,14.92
2023-05-11T22:21:11.017Z,14.90
2023-05-11T22:23:37.630Z,14.94
2023-05-11T22:26:04.550Z,14.86
2023-05-11T22:28:31.018Z,14.94
2023-05-11T22:31:00.628Z,14.71
2023-05-11T22:33:27.114Z,14.71
2023-05-11T22:35:53.637Z,14.74
2023-05-11T22:38:20.194Z,14.64
2023-05-11T22:40:46.694Z,14.73
2023-05-11T22:43:13.226Z,14.61
2023-05-11T22:45:39.915Z,14.66
2023-05-11T22:48:07.278Z,14.61
2023-05-11T22:50:33.867Z,14.65
2023-05-11T22:53:00.649Z,14.50
2023-05-11T22:55:27.189Z,14.52
2023-05-11T22:57:53.625Z,14.50
2023-05-11T23:00:20.577Z,14.50
2023-05-11T23:02:47.537Z,14.44
2023-05-11T23:05:14.288Z,14.51
2023-05-11T23:07:40.807Z,14.26
2023-05-11T23:10:07.645Z,14.10
2023-05-11T23:12:34.230Z,14.13
2023-05-11T23:15:01.021Z,14.18
2023-05-11T23:17:27.696Z,14.16
2023-05-11T23:19:54.236Z,14.24
2023-05-11T23:22:20.772Z,14.11
2023-05-11T23:24:47.312Z,14.08
2023-05-11T23:27:14.121Z,14.18
2023-05-11T23:29:40.723Z,14.06
2023-05-11T23:32:07.301Z,14.07
2023-05-11T23:34:33.823Z,14.01
2023-05-11T23:37:00.425Z,13.94
2023-05-11T23:39:26.922Z,14.00
2023-05-11T23:41:53.410Z,14.01
2023-05-11T23:44:20.272Z,14.01
2023-05-11T23:46:46.884Z,13.99
2023-05-11T23:49:13.537Z,13.78
2023-05-11T23:51:40.088Z,13.77
2023-05-11T23:54:07.099Z,13.86
2023-05-11T23:56:33.770Z,13.77
2023-05-11T23:59:00.287Z,13.69
